sensor_id;sensor_type;location;lat;lon;timestamp;temperature;humidity
78793;SHT31;68134;51.984;5.652;2023-08-31T00:00:30;14.0;74.5
78793;SHT31;68134;51.984;5.652;2023-08-31T00:03:00;14.0;74.3
78793;SHT31;68134;51.984;5.652;2023-08-31T00:05:29;14.0;74.2
78793;SHT31;68134;51.984;5.652;2023-08-31T00:07:57;14.0;74.2
78793;SHT31;68134;51.984;5.652;2023-08-31T00:10:26;14.0;74.8
78793;SHT31;68134;51.984;5.652;2023-08-31T00:12:56;13.9;75.3
78793;SHT31;68134;51.984;5.652;2023-08-31T00:15:25;13.9;75.6
78793;SHT31;68134;51.984;5.652;2023-08-31T00:17:55;13.9;75.9
78793;SHT31;68134;51.984;5.652;2023-08-31T00:20:25;13.9;75.8
78793;SHT31;68134;51.984;5.652;2023-08-31T00:22:56;13.9;75.8
78793;SHT31;68134;51.984;5.652;2023-08-31T00:25:25;13.9;76.3
78793;SHT31;68134;51.984;5.652;2023-08-31T00:27:55;13.8;76.7
78793;SHT31;68134;51.984;5.652;2023-08-31T00:30:29;13.8;76.7
78793;SHT31;68134;51.984;5.652;2023-08-31T00:32:58;13.8;77.1
78793;SHT31;68134;51.984;5.652;2023-08-31T00:35:28;13.8;77.3
78793;SHT31;68134;51.984;5.652;2023-08-31T00:37:59;13.8;77.2
78793;SHT31;68134;51.984;5.652;2023-08-31T00:40:31;13.8;77.5
78793;SHT31;68134;51.984;5.652;2023-08-31T00:43:01;13.8;77.7
78793;SHT31;68134;51.984;5.652;2023-08-31T00:45:30;13.8;77.2
78793;SHT31;68134;51.984;5.652;2023-08-31T00:47:59;13.8;77.7
78793;SHT31;68134;51.984;5.652;2023-08-31T00:50:28;13.8;77.9
78793;SHT31;68134;51.984;5.652;2023-08-31T00:52:56;13.8;78.0
78793;SHT31;68134;51.984;5.652;2023-08-31T00:55:25;13.8;78.1
78793;SHT31;68134;51.984;5.652;2023-08-31T00:57:56;13.8;78.1
78793;SHT31;68134;51.984;5.652;2023-08-31T01:00:40;13.7;78.3
78793;SHT31;68134;51.984;5.652;2023-08-31T01:03:12;13.7;78.6
78793;SHT31;68134;51.984;5.652;2023-08-31T01:05:50;13.7;78.7
78793;SHT31;68134;51.984;5.652;2023-08-31T01:08:29;13.7;78.2
78793;SHT31;68134;51.984;5.652;2023-08-31T01:11:12;13.7;78.3
78793;SHT31;68134;51.984;5.652;2023-08-31T01:13:41;13.7;78.2
78793;SHT31;68134;51.984;5.652;2023-08-31T01:16:13;13.7;78.3
78793;SHT31;68134;51.984;5.652;2023-08-31T01:18:43;13.7;78.2
78793;SHT31;68134;51.984;5.652;2023-08-31T01:21:20;13.7;77.7
78793;SHT31;68134;51.984;5.652;2023-08-31T01:23:54;13.7;77.7
78793;SHT31;68134;51.984;5.652;2023-08-31T01:26:25;13.8;78.3
78793;SHT31;68134;51.984;5.652;2023-08-31T01:28:57;13.8;78.6
78793;SHT31;68134;51.984;5.652;2023-08-31T01:31:26;13.8;78.7
78793;SHT31;68134;51.984;5.652;2023-08-31T01:33:55;13.8;78.9
78793;SHT31;68134;51.984;5.652;2023-08-31T01:36:28;13.8;79.0
78793;SHT31;68134;51.984;5.652;2023-08-31T01:39:02;13.9;79.1
78793;SHT31;68134;51.984;5.652;2023-08-31T01:41:34;13.9;79.2
78793;SHT31;68134;51.984;5.652;2023-08-31T01:44:05;13.9;79.2
78793;SHT31;68134;51.984;5.652;2023-08-31T01:46:40;14.0;79.0
78793;SHT31;68134;51.984;5.652;2023-08-31T01:49:10;14.0;78.9
78793;SHT31;68134;51.984;5.652;2023-08-31T01:51:41;14.1;78.7
78793;SHT31;68134;51.984;5.652;2023-08-31T01:54:10;14.1;78.6
78793;SHT31;68134;51.984;5.652;2023-08-31T01:56:38;14.1;78.6
78793;SHT31;68134;51.984;5.652;2023-08-31T01:59:07;14.2;78.3
78793;SHT31;68134;51.984;5.652;2023-08-31T02:01:37;14.2;77.9
78793;SHT31;68134;51.984;5.652;2023-08-31T02:04:08;14.2;77.9
78793;SHT31;68134;51.984;5.652;2023-08-31T02:06:37;14.2;77.7
78793;SHT31;68134;51.984;5.652;2023-08-31T02:09:06;14.2;77.8
78793;SHT31;68134;51.984;5.652;2023-08-31T02:11:34;14.2;77.7
78793;SHT31;68134;51.984;5.652;2023-08-31T02:14:05;14.2;77.8
78793;SHT31;68134;51.984;5.652;2023-08-31T02:16:34;14.2;77.7
78793;SHT31;68134;51.984;5.652;2023-08-31T02:19:02;14.2;77.7
78793;SHT31;68134;51.984;5.652;2023-08-31T02:21:31;14.2;77.6
78793;SHT31;68134;51.984;5.652;2023-08-31T02:24:00;14.1;77.5
78793;SHT31;68134;51.984;5.652;2023-08-31T02:26:29;14.1;77.4
78793;SHT31;68134;51.984;5.652;2023-08-31T02:28:58;14.1;77.5
78793;SHT31;68134;51.984;5.652;2023-08-31T02:31:28;14.1;77.5
78793;SHT31;68134;51.984;5.652;2023-08-31T02:33:57;14.1;77.3
78793;SHT31;68134;51.984;5.652;2023-08-31T02:36:26;14.1;77.8
78793;SHT31;68134;51.984;5.652;2023-08-31T02:38:55;14.1;77.8
78793;SHT31;68134;51.984;5.652;2023-08-31T02:41:24;14.1;77.8
78793;SHT31;68134;51.984;5.652;2023-08-31T02:43:53;14.0;77.9
78793;SHT31;68134;51.984;5.652;2023-08-31T02:46:21;14.0;77.9
78793;SHT31;68134;51.984;5.652;2023-08-31T02:48:50;14.0;78.2
78793;SHT31;68134;51.984;5.652;2023-08-31T02:51:19;14.0;78.2
78793;SHT31;68134;51.984;5.652;2023-08-31T02:53:48;14.0;78.4
78793;SHT31;68134;51.984;5.652;2023-08-31T02:56:16;14.0;78.4
78793;SHT31;68134;51.984;5.652;2023-08-31T02:58:45;14.0;78.3
78793;SHT31;68134;51.984;5.652;2023-08-31T03:01:14;14.1;78.3
78793;SHT31;68134;51.984;5.652;2023-08-31T03:03:43;14.1;78.0
78793;SHT31;68134;51.984;5.652;2023-08-31T03:06:13;14.1;77.8
78793;SHT31;68134;51.984;5.652;2023-08-31T03:08:44;14.1;77.3
78793;SHT31;68134;51.984;5.652;2023-08-31T03:11:13;14.2;76.9
78793;SHT31;68134;51.984;5.652;2023-08-31T03:13:45;14.2;76.6
78793;SHT31;68134;51.984;5.652;2023-08-31T03:16:13;14.2;76.7
78793;SHT31;68134;51.984;5.652;2023-08-31T03:18:42;14.2;76.7
78793;SHT31;68134;51.984;5.652;2023-08-31T03:21:12;14.2;76.4
78793;SHT31;68134;51.984;5.652;2023-08-31T03:23:41;14.2;76.0
78793;SHT31;68134;51.984;5.652;2023-08-31T03:26:10;14.2;75.6
78793;SHT31;68134;51.984;5.652;2023-08-31T03:28:39;14.3;75.6
78793;SHT31;68134;51.984;5.652;2023-08-31T03:31:07;14.2;75.6
78793;SHT31;68134;51.984;5.652;2023-08-31T03:33:36;14.2;75.7
78793;SHT31;68134;51.984;5.652;2023-08-31T03:36:07;14.2;75.6
78793;SHT31;68134;51.984;5.652;2023-08-31T03:38:36;14.2;76.1
78793;SHT31;68134;51.984;5.652;2023-08-31T03:41:05;14.2;76.6
78793;SHT31;68134;51.984;5.652;2023-08-31T03:43:34;14.1;76.4
78793;SHT31;68134;51.984;5.652;2023-08-31T03:46:02;14.1;76.7
78793;SHT31;68134;51.984;5.652;2023-08-31T03:48:31;14.1;77.2
78793;SHT31;68134;51.984;5.652;2023-08-31T03:51:00;14.1;77.3
78793;SHT31;68134;51.984;5.652;2023-08-31T03:53:29;14.1;77.3
78793;SHT31;68134;51.984;5.652;2023-08-31T03:55:58;14.1;77.5
78793;SHT31;68134;51.984;5.652;2023-08-31T03:58:27;14.1;77.6
78793;SHT31;68134;51.984;5.652;2023-08-31T04:00:55;14.1;77.8
78793;SHT31;68134;51.984;5.652;2023-08-31T04:03:25;14.1;77.8
78793;SHT31;68134;51.984;5.652;2023-08-31T04:05:56;14.1;78.0
78793;SHT31;68134;51.984;5.652;2023-08-31T04:08:25;14.1;77.9
78793;SHT31;68134;51.984;5.652;2023-08-31T04:10:54;14.1;77.8
78793;SHT31;68134;51.984;5.652;2023-08-31T04:13:23;14.1;77.9
78793;SHT31;68134;51.984;5.652;2023-08-31T04:15:52;14.1;78.2
78793;SHT31;68134;51.984;5.652;2023-08-31T04:18:21;14.1;78.2
78793;SHT31;68134;51.984;5.652;2023-08-31T04:20:51;14.2;78.3
78793;SHT31;68134;51.984;5.652;2023-08-31T04:23:20;14.2;78.6
78793;SHT31;68134;51.984;5.652;2023-08-31T04:25:49;14.2;78.7
78793;SHT31;68134;51.984;5.652;2023-08-31T04:28:20;14.2;79.0
78793;SHT31;68134;51.984;5.652;2023-08-31T04:30:48;14.3;79.2
78793;SHT31;68134;51.984;5.652;2023-08-31T04:33:18;14.3;79.4
78793;SHT31;68134;51.984;5.652;2023-08-31T04:35:46;14.3;79.5
78793;SHT31;68134;51.984;5.652;2023-08-31T04:38:16;14.4;79.6
78793;SHT31;68134;51.984;5.652;2023-08-31T04:40:44;14.4;79.7
78793;SHT31;68134;51.984;5.652;2023-08-31T04:43:13;14.4;79.8
78793;SHT31;68134;51.984;5.652;2023-08-31T04:45:42;14.5;79.8
78793;SHT31;68134;51.984;5.652;2023-08-31T04:48:11;14.5;79.8
78793;SHT31;68134;51.984;5.652;2023-08-31T04:50:41;14.5;79.7
78793;SHT31;68134;51.984;5.652;2023-08-31T04:53:09;14.6;79.6
78793;SHT31;68134;51.984;5.652;2023-08-31T04:55:38;14.6;79.5
78793;SHT31;68134;51.984;5.652;2023-08-31T04:58:09;14.6;79.4
78793;SHT31;68134;51.984;5.652;2023-08-31T05:00:37;14.6;79.1
78793;SHT31;68134;51.984;5.652;2023-08-31T05:03:07;14.6;78.8
78793;SHT31;68134;51.984;5.652;2023-08-31T05:05:35;14.6;78.7
78793;SHT31;68134;51.984;5.652;2023-08-31T05:08:05;14.7;78.7
78793;SHT31;68134;51.984;5.652;2023-08-31T05:10:34;14.7;79.1
78793;SHT31;68134;51.984;5.652;2023-08-31T05:13:02;14.6;79.3
78793;SHT31;68134;51.984;5.652;2023-08-31T05:15:32;14.6;79.5
78793;SHT31;68134;51.984;5.652;2023-08-31T05:18:01;14.6;80.0
78793;SHT31;68134;51.984;5.652;2023-08-31T05:20:30;14.6;80.2
78793;SHT31;68134;51.984;5.652;2023-08-31T05:22:58;14.5;80.2
78793;SHT31;68134;51.984;5.652;2023-08-31T05:25:27;14.5;80.3
78793;SHT31;68134;51.984;5.652;2023-08-31T05:27:55;14.5;80.6
78793;SHT31;68134;51.984;5.652;2023-08-31T05:30:24;14.5;80.4
78793;SHT31;68134;51.984;5.652;2023-08-31T05:32:53;14.5;80.4
78793;SHT31;68134;51.984;5.652;2023-08-31T05:35:22;14.5;80.5
78793;SHT31;68134;51.984;5.652;2023-08-31T05:37:50;14.5;80.5
78793;SHT31;68134;51.984;5.652;2023-08-31T05:40:19;14.5;80.6
78793;SHT31;68134;51.984;5.652;2023-08-31T05:42:48;14.5;80.7
78793;SHT31;68134;51.984;5.652;2023-08-31T05:45:17;14.6;80.4
78793;SHT31;68134;51.984;5.652;2023-08-31T05:47:45;14.6;80.4
78793;SHT31;68134;51.984;5.652;2023-08-31T05:50:14;14.6;80.1
78793;SHT31;68134;51.984;5.652;2023-08-31T05:52:43;14.6;80.3
78793;SHT31;68134;51.984;5.652;2023-08-31T05:55:12;14.6;80.1
78793;SHT31;68134;51.984;5.652;2023-08-31T05:57:40;14.6;80.0
78793;SHT31;68134;51.984;5.652;2023-08-31T06:00:10;14.6;79.9
78793;SHT31;68134;51.984;5.652;2023-08-31T06:02:38;14.6;79.6
78793;SHT31;68134;51.984;5.652;2023-08-31T06:05:08;14.6;79.6
78793;SHT31;68134;51.984;5.652;2023-08-31T06:07:38;14.7;79.9
78793;SHT31;68134;51.984;5.652;2023-08-31T06:10:07;14.7;79.8
78793;SHT31;68134;51.984;5.652;2023-08-31T06:12:37;14.7;80.1
78793;SHT31;68134;51.984;5.652;2023-08-31T06:15:06;14.7;80.1
78793;SHT31;68134;51.984;5.652;2023-08-31T06:17:35;14.7;80.2
78793;SHT31;68134;51.984;5.652;2023-08-31T06:20:04;14.7;80.5
78793;SHT31;68134;51.984;5.652;2023-08-31T06:22:34;14.7;80.5
78793;SHT31;68134;51.984;5.652;2023-08-31T06:25:06;14.7;80.6
78793;SHT31;68134;51.984;5.652;2023-08-31T06:27:36;14.8;80.7
78793;SHT31;68134;51.984;5.652;2023-08-31T06:30:05;14.8;80.1
78793;SHT31;68134;51.984;5.652;2023-08-31T06:32:35;14.8;80.0
78793;SHT31;68134;51.984;5.652;2023-08-31T06:35:03;14.9;80.1
78793;SHT31;68134;51.984;5.652;2023-08-31T06:37:32;14.9;79.9
78793;SHT31;68134;51.984;5.652;2023-08-31T06:40:01;14.9;79.7
78793;SHT31;68134;51.984;5.652;2023-08-31T06:42:29;14.9;79.6
78793;SHT31;68134;51.984;5.652;2023-08-31T06:44:58;15.0;79.5
78793;SHT31;68134;51.984;5.652;2023-08-31T06:47:27;15.0;79.6
78793;SHT31;68134;51.984;5.652;2023-08-31T06:49:57;15.0;79.9
78793;SHT31;68134;51.984;5.652;2023-08-31T06:52:26;15.0;79.4
78793;SHT31;68134;51.984;5.652;2023-08-31T06:54:54;15.1;80.1
78793;SHT31;68134;51.984;5.652;2023-08-31T06:57:24;15.1;80.2
78793;SHT31;68134;51.984;5.652;2023-08-31T06:59:53;15.1;79.7
78793;SHT31;68134;51.984;5.652;2023-08-31T07:02:22;15.2;79.6
78793;SHT31;68134;51.984;5.652;2023-08-31T07:04:51;15.2;79.4
78793;SHT31;68134;51.984;5.652;2023-08-31T07:07:19;15.2;79.6
78793;SHT31;68134;51.984;5.652;2023-08-31T07:09:48;15.2;79.4
78793;SHT31;68134;51.984;5.652;2023-08-31T07:12:17;15.3;79.5
78793;SHT31;68134;51.984;5.652;2023-08-31T07:14:46;15.3;79.5
78793;SHT31;68134;51.984;5.652;2023-08-31T07:17:17;15.3;79.6
78793;SHT31;68134;51.984;5.652;2023-08-31T07:19:46;15.4;79.4
78793;SHT31;68134;51.984;5.652;2023-08-31T07:22:15;15.4;79.4
78793;SHT31;68134;51.984;5.652;2023-08-31T07:24:44;15.4;79.6
78793;SHT31;68134;51.984;5.652;2023-08-31T07:27:14;15.5;79.4
78793;SHT31;68134;51.984;5.652;2023-08-31T07:29:43;15.5;79.4
78793;SHT31;68134;51.984;5.652;2023-08-31T07:32:11;15.5;79.6
78793;SHT31;68134;51.984;5.652;2023-08-31T07:34:40;15.6;79.7
78793;SHT31;68134;51.984;5.652;2023-08-31T07:37:08;15.6;79.0
78793;SHT31;68134;51.984;5.652;2023-08-31T07:39:37;15.6;78.6
78793;SHT31;68134;51.984;5.652;2023-08-31T07:42:07;15.6;78.7
78793;SHT31;68134;51.984;5.652;2023-08-31T07:44:35;15.6;78.8
78793;SHT31;68134;51.984;5.652;2023-08-31T07:47:04;15.6;78.9
78793;SHT31;68134;51.984;5.652;2023-08-31T07:49:33;15.6;79.2
78793;SHT31;68134;51.984;5.652;2023-08-31T07:52:02;15.7;79.1
78793;SHT31;68134;51.984;5.652;2023-08-31T07:54:31;15.7;79.0
78793;SHT31;68134;51.984;5.652;2023-08-31T07:57:02;15.7;78.9
78793;SHT31;68134;51.984;5.652;2023-08-31T07:59:30;15.8;79.6
78793;SHT31;68134;51.984;5.652;2023-08-31T08:02:01;15.8;79.9
78793;SHT31;68134;51.984;5.652;2023-08-31T08:04:30;15.9;79.7
78793;SHT31;68134;51.984;5.652;2023-08-31T08:06:59;15.9;80.8
78793;SHT31;68134;51.984;5.652;2023-08-31T08:09:27;16.0;81.3
78793;SHT31;68134;51.984;5.652;2023-08-31T08:11:57;16.1;79.4
78793;SHT31;68134;51.984;5.652;2023-08-31T08:14:25;16.2;79.6
78793;SHT31;68134;51.984;5.652;2023-08-31T08:16:54;16.3;80.1
78793;SHT31;68134;51.984;5.652;2023-08-31T08:19:23;16.4;80.0
78793;SHT31;68134;51.984;5.652;2023-08-31T08:21:52;16.5;79.3
78793;SHT31;68134;51.984;5.652;2023-08-31T08:24:21;16.6;78.8
78793;SHT31;68134;51.984;5.652;2023-08-31T08:26:49;16.7;78.1
78793;SHT31;68134;51.984;5.652;2023-08-31T08:29:18;16.8;77.4
78793;SHT31;68134;51.984;5.652;2023-08-31T08:31:48;16.8;77.0
78793;SHT31;68134;51.984;5.652;2023-08-31T08:34:17;16.9;75.9
78793;SHT31;68134;51.984;5.652;2023-08-31T08:36:45;16.9;76.8
78793;SHT31;68134;51.984;5.652;2023-08-31T08:39:14;17.0;77.1
78793;SHT31;68134;51.984;5.652;2023-08-31T08:41:46;17.1;76.8
78793;SHT31;68134;51.984;5.652;2023-08-31T08:44:16;17.3;75.8
78793;SHT31;68134;51.984;5.652;2023-08-31T08:46:48;17.4;77.7
78793;SHT31;68134;51.984;5.652;2023-08-31T08:49:18;17.6;77.9
78793;SHT31;68134;51.984;5.652;2023-08-31T08:51:47;18.2;75.8
78793;SHT31;68134;51.984;5.652;2023-08-31T08:54:17;18.8;72.1
78793;SHT31;68134;51.984;5.652;2023-08-31T08:56:46;19.5;69.7
78793;SHT31;68134;51.984;5.652;2023-08-31T08:59:15;20.2;68.3
78793;SHT31;68134;51.984;5.652;2023-08-31T09:01:45;20.7;65.4
78793;SHT31;68134;51.984;5.652;2023-08-31T09:04:17;21.1;62.6
78793;SHT31;68134;51.984;5.652;2023-08-31T09:06:46;21.3;61.0
78793;SHT31;68134;51.984;5.652;2023-08-31T09:09:15;21.6;60.5
78793;SHT31;68134;51.984;5.652;2023-08-31T09:11:45;21.8;57.9
78793;SHT31;68134;51.984;5.652;2023-08-31T09:14:18;22.0;57.6
78793;SHT31;68134;51.984;5.652;2023-08-31T09:16:49;22.2;58.5
78793;SHT31;68134;51.984;5.652;2023-08-31T09:19:22;22.5;56.4
78793;SHT31;68134;51.984;5.652;2023-08-31T09:21:52;22.5;55.7
78793;SHT31;68134;51.984;5.652;2023-08-31T09:24:21;22.5;55.8
78793;SHT31;68134;51.984;5.652;2023-08-31T09:26:55;22.5;54.9
78793;SHT31;68134;51.984;5.652;2023-08-31T09:29:24;22.5;54.5
78793;SHT31;68134;51.984;5.652;2023-08-31T09:31:53;22.5;55.5
78793;SHT31;68134;51.984;5.652;2023-08-31T09:34:34;22.6;57.6
78793;SHT31;68134;51.984;5.652;2023-08-31T09:37:06;22.9;57.6
78793;SHT31;68134;51.984;5.652;2023-08-31T09:39:39;23.0;54.3
78793;SHT31;68134;51.984;5.652;2023-08-31T09:42:08;23.0;52.5
78793;SHT31;68134;51.984;5.652;2023-08-31T09:44:40;22.9;52.8
78793;SHT31;68134;51.984;5.652;2023-08-31T09:47:09;22.7;55.2
78793;SHT31;68134;51.984;5.652;2023-08-31T09:49:38;22.5;53.9
78793;SHT31;68134;51.984;5.652;2023-08-31T09:52:10;22.4;52.9
78793;SHT31;68134;51.984;5.652;2023-08-31T09:54:43;22.1;54.5
78793;SHT31;68134;51.984;5.652;2023-08-31T09:57:15;22.0;54.8
78793;SHT31;68134;51.984;5.652;2023-08-31T09:59:45;21.8;56.6
78793;SHT31;68134;51.984;5.652;2023-08-31T10:02:17;21.7;56.6
78793;SHT31;68134;51.984;5.652;2023-08-31T10:04:46;21.6;56.5
78793;SHT31;68134;51.984;5.652;2023-08-31T10:07:19;21.6;57.1
78793;SHT31;68134;51.984;5.652;2023-08-31T10:09:49;21.6;54.3
78793;SHT31;68134;51.984;5.652;2023-08-31T10:12:19;21.6;55.8
78793;SHT31;68134;51.984;5.652;2023-08-31T10:14:49;21.5;56.7
78793;SHT31;68134;51.984;5.652;2023-08-31T10:17:19;21.5;57.5
78793;SHT31;68134;51.984;5.652;2023-08-31T10:19:49;21.6;56.3
78793;SHT31;68134;51.984;5.652;2023-08-31T10:22:18;21.9;55.7
78793;SHT31;68134;51.984;5.652;2023-08-31T10:24:59;22.3;54.5
78793;SHT31;68134;51.984;5.652;2023-08-31T10:27:38;22.7;49.5
78793;SHT31;68134;51.984;5.652;2023-08-31T10:30:27;22.8;50.2
78793;SHT31;68134;51.984;5.652;2023-08-31T10:33:24;22.9;49.1
78793;SHT31;68134;51.984;5.652;2023-08-31T10:35:55;23.1;49.5
78793;SHT31;68134;51.984;5.652;2023-08-31T10:38:29;23.4;49.9
78793;SHT31;68134;51.984;5.652;2023-08-31T10:41:21;23.7;47.9
78793;SHT31;68134;51.984;5.652;2023-08-31T10:43:53;24.1;45.0
78793;SHT31;68134;51.984;5.652;2023-08-31T10:46:29;24.3;45.9
78793;SHT31;68134;51.984;5.652;2023-08-31T10:48:59;24.5;46.8
78793;SHT31;68134;51.984;5.652;2023-08-31T10:51:31;24.7;45.0
78793;SHT31;68134;51.984;5.652;2023-08-31T10:54:11;24.9;45.4
78793;SHT31;68134;51.984;5.652;2023-08-31T10:56:54;25.3;44.2
78793;SHT31;68134;51.984;5.652;2023-08-31T10:59:24;25.7;46.0
78793;SHT31;68134;51.984;5.652;2023-08-31T11:01:57;26.0;42.9
78793;SHT31;68134;51.984;5.652;2023-08-31T11:04:29;26.3;40.2
78793;SHT31;68134;51.984;5.652;2023-08-31T11:07:17;26.5;41.2
78793;SHT31;68134;51.984;5.652;2023-08-31T11:09:46;26.9;39.5
78793;SHT31;68134;51.984;5.652;2023-08-31T11:12:17;27.1;39.1
78793;SHT31;68134;51.984;5.652;2023-08-31T11:14:49;27.3;35.6
78793;SHT31;68134;51.984;5.652;2023-08-31T11:17:20;27.3;36.7
78793;SHT31;68134;51.984;5.652;2023-08-31T11:19:49;27.4;38.3
78793;SHT31;68134;51.984;5.652;2023-08-31T11:22:18;27.5;38.2
78793;SHT31;68134;51.984;5.652;2023-08-31T11:24:47;27.6;36.5
78793;SHT31;68134;51.984;5.652;2023-08-31T11:27:19;27.7;35.3
78793;SHT31;68134;51.984;5.652;2023-08-31T11:29:50;27.9;34.9
78793;SHT31;68134;51.984;5.652;2023-08-31T11:32:19;28.0;34.6
78793;SHT31;68134;51.984;5.652;2023-08-31T11:34:47;28.1;33.5
78793;SHT31;68134;51.984;5.652;2023-08-31T11:37:16;28.2;32.4
78793;SHT31;68134;51.984;5.652;2023-08-31T11:39:50;28.3;33.4
78793;SHT31;68134;51.984;5.652;2023-08-31T11:42:21;28.3;33.7
78793;SHT31;68134;51.984;5.652;2023-08-31T11:44:51;28.4;33.0
78793;SHT31;68134;51.984;5.652;2023-08-31T11:47:23;28.4;34.3
78793;SHT31;68134;51.984;5.652;2023-08-31T11:49:53;28.6;32.1
78793;SHT31;68134;51.984;5.652;2023-08-31T11:52:21;28.7;33.9
78793;SHT31;68134;51.984;5.652;2023-08-31T11:54:53;28.7;32.8
78793;SHT31;68134;51.984;5.652;2023-08-31T11:57:25;28.7;33.4
78793;SHT31;68134;51.984;5.652;2023-08-31T11:59:55;28.8;32.5
78793;SHT31;68134;51.984;5.652;2023-08-31T12:02:24;28.8;32.5
78793;SHT31;68134;51.984;5.652;2023-08-31T12:04:56;28.9;32.0
78793;SHT31;68134;51.984;5.652;2023-08-31T12:07:25;28.9;31.7
78793;SHT31;68134;51.984;5.652;2023-08-31T12:09:54;28.9;31.3
78793;SHT31;68134;51.984;5.652;2023-08-31T12:12:23;28.9;31.9
78793;SHT31;68134;51.984;5.652;2023-08-31T12:14:54;28.9;32.1
78793;SHT31;68134;51.984;5.652;2023-08-31T12:17:23;28.9;31.2
78793;SHT31;68134;51.984;5.652;2023-08-31T12:19:51;28.9;32.6
78793;SHT31;68134;51.984;5.652;2023-08-31T12:22:20;28.8;33.3
78793;SHT31;68134;51.984;5.652;2023-08-31T12:24:48;28.8;32.8
78793;SHT31;68134;51.984;5.652;2023-08-31T12:27:17;28.9;32.7
78793;SHT31;68134;51.984;5.652;2023-08-31T12:29:46;28.9;33.6
78793;SHT31;68134;51.984;5.652;2023-08-31T12:32:16;29.0;32.7
78793;SHT31;68134;51.984;5.652;2023-08-31T12:34:45;29.1;32.3
78793;SHT31;68134;51.984;5.652;2023-08-31T12:37:14;29.2;32.6
78793;SHT31;68134;51.984;5.652;2023-08-31T12:39:42;29.3;33.2
78793;SHT31;68134;51.984;5.652;2023-08-31T12:42:12;29.4;32.0
78793;SHT31;68134;51.984;5.652;2023-08-31T12:44:41;29.4;33.1
78793;SHT31;68134;51.984;5.652;2023-08-31T12:47:10;29.5;33.0
78793;SHT31;68134;51.984;5.652;2023-08-31T12:49:38;29.6;32.7
78793;SHT31;68134;51.984;5.652;2023-08-31T12:52:07;29.7;33.0
78793;SHT31;68134;51.984;5.652;2023-08-31T12:54:36;29.9;33.0
78793;SHT31;68134;51.984;5.652;2023-08-31T12:57:04;30.0;31.8
78793;SHT31;68134;51.984;5.652;2023-08-31T12:59:33;30.1;32.8
78793;SHT31;68134;51.984;5.652;2023-08-31T13:02:02;30.2;31.6
78793;SHT31;68134;51.984;5.652;2023-08-31T13:04:36;30.3;29.8
78793;SHT31;68134;51.984;5.652;2023-08-31T13:07:06;30.3;29.4
78793;SHT31;68134;51.984;5.652;2023-08-31T13:09:35;30.3;31.0
78793;SHT31;68134;51.984;5.652;2023-08-31T13:12:04;30.3;31.0
78793;SHT31;68134;51.984;5.652;2023-08-31T13:14:33;30.3;30.2
78793;SHT31;68134;51.984;5.652;2023-08-31T13:17:01;30.1;30.0
78793;SHT31;68134;51.984;5.652;2023-08-31T13:19:31;30.0;30.2
78793;SHT31;68134;51.984;5.652;2023-08-31T13:22:00;30.0;30.7
78793;SHT31;68134;51.984;5.652;2023-08-31T13:24:29;29.9;30.3
78793;SHT31;68134;51.984;5.652;2023-08-31T13:26:57;29.9;30.8
78793;SHT31;68134;51.984;5.652;2023-08-31T13:29:26;29.8;31.1
78793;SHT31;68134;51.984;5.652;2023-08-31T13:31:54;29.9;31.1
78793;SHT31;68134;51.984;5.652;2023-08-31T13:34:23;29.9;31.4
78793;SHT31;68134;51.984;5.652;2023-08-31T13:36:52;29.8;31.4
78793;SHT31;68134;51.984;5.652;2023-08-31T13:39:20;29.9;31.9
78793;SHT31;68134;51.984;5.652;2023-08-31T13:41:50;29.9;32.7
78793;SHT31;68134;51.984;5.652;2023-08-31T13:44:20;30.0;33.3
78793;SHT31;68134;51.984;5.652;2023-08-31T13:46:49;30.1;31.3
78793;SHT31;68134;51.984;5.652;2023-08-31T13:49:17;30.2;30.7
78793;SHT31;68134;51.984;5.652;2023-08-31T13:51:46;30.2;30.1
78793;SHT31;68134;51.984;5.652;2023-08-31T13:54:15;30.2;31.4
78793;SHT31;68134;51.984;5.652;2023-08-31T13:56:43;30.1;31.8
78793;SHT31;68134;51.984;5.652;2023-08-31T13:59:14;30.0;31.5
78793;SHT31;68134;51.984;5.652;2023-08-31T14:01:43;29.9;30.7
78793;SHT31;68134;51.984;5.652;2023-08-31T14:04:11;29.6;31.1
78793;SHT31;68134;51.984;5.652;2023-08-31T14:06:40;29.4;31.2
78793;SHT31;68134;51.984;5.652;2023-08-31T14:09:08;29.1;31.5
78793;SHT31;68134;51.984;5.652;2023-08-31T14:11:38;29.0;31.7
78793;SHT31;68134;51.984;5.652;2023-08-31T14:14:07;28.9;32.3
78793;SHT31;68134;51.984;5.652;2023-08-31T14:16:38;28.9;32.4
78793;SHT31;68134;51.984;5.652;2023-08-31T14:19:06;28.8;32.6
78793;SHT31;68134;51.984;5.652;2023-08-31T14:21:35;28.7;33.0
78793;SHT31;68134;51.984;5.652;2023-08-31T14:24:04;28.6;32.3
78793;SHT31;68134;51.984;5.652;2023-08-31T14:26:33;28.5;32.6
78793;SHT31;68134;51.984;5.652;2023-08-31T14:29:02;28.3;33.1
78793;SHT31;68134;51.984;5.652;2023-08-31T14:31:31;28.1;33.7
78793;SHT31;68134;51.984;5.652;2023-08-31T14:33:59;27.9;34.5
78793;SHT31;68134;51.984;5.652;2023-08-31T14:36:28;27.8;33.8
78793;SHT31;68134;51.984;5.652;2023-08-31T14:38:57;27.6;34.3
78793;SHT31;68134;51.984;5.652;2023-08-31T14:41:25;27.4;34.0
78793;SHT31;68134;51.984;5.652;2023-08-31T14:43:54;27.3;35.6
78793;SHT31;68134;51.984;5.652;2023-08-31T14:46:23;27.2;37.4
78793;SHT31;68134;51.984;5.652;2023-08-31T14:48:51;27.1;37.2
78793;SHT31;68134;51.984;5.652;2023-08-31T14:51:22;27.1;35.6
78793;SHT31;68134;51.984;5.652;2023-08-31T14:53:51;27.1;36.6
78793;SHT31;68134;51.984;5.652;2023-08-31T14:56:20;27.1;35.6
78793;SHT31;68134;51.984;5.652;2023-08-31T14:58:48;27.1;35.7
78793;SHT31;68134;51.984;5.652;2023-08-31T15:01:17;27.0;35.7
78793;SHT31;68134;51.984;5.652;2023-08-31T15:03:45;27.0;36.5
78793;SHT31;68134;51.984;5.652;2023-08-31T15:06:14;27.0;35.9
78793;SHT31;68134;51.984;5.652;2023-08-31T15:08:43;27.0;34.2
78793;SHT31;68134;51.984;5.652;2023-08-31T15:11:12;27.0;36.2
78793;SHT31;68134;51.984;5.652;2023-08-31T15:13:40;26.9;35.3
78793;SHT31;68134;51.984;5.652;2023-08-31T15:16:10;26.8;35.1
78793;SHT31;68134;51.984;5.652;2023-08-31T15:18:38;26.8;35.4
78793;SHT31;68134;51.984;5.652;2023-08-31T15:21:07;26.7;35.8
78793;SHT31;68134;51.984;5.652;2023-08-31T15:23:37;26.5;36.3
78793;SHT31;68134;51.984;5.652;2023-08-31T15:26:06;26.4;37.3
78793;SHT31;68134;51.984;5.652;2023-08-31T15:28:35;26.3;37.1
78793;SHT31;68134;51.984;5.652;2023-08-31T15:31:03;26.2;37.0
78793;SHT31;68134;51.984;5.652;2023-08-31T15:33:32;26.2;37.7
78793;SHT31;68134;51.984;5.652;2023-08-31T15:36:05;26.1;38.1
78793;SHT31;68134;51.984;5.652;2023-08-31T15:38:36;26.0;38.7
78793;SHT31;68134;51.984;5.652;2023-08-31T15:41:06;25.9;38.4
78793;SHT31;68134;51.984;5.652;2023-08-31T15:43:36;25.8;38.4
78793;SHT31;68134;51.984;5.652;2023-08-31T15:46:05;25.7;38.5
78793;SHT31;68134;51.984;5.652;2023-08-31T15:48:34;25.7;38.8
78793;SHT31;68134;51.984;5.652;2023-08-31T15:51:03;25.6;37.7
78793;SHT31;68134;51.984;5.652;2023-08-31T15:53:33;25.5;38.6
78793;SHT31;68134;51.984;5.652;2023-08-31T15:56:02;25.4;39.7
78793;SHT31;68134;51.984;5.652;2023-08-31T15:58:32;25.3;39.5
78793;SHT31;68134;51.984;5.652;2023-08-31T16:01:01;25.3;39.5
78793;SHT31;68134;51.984;5.652;2023-08-31T16:03:32;25.2;39.8
78793;SHT31;68134;51.984;5.652;2023-08-31T16:06:01;25.2;38.3
78793;SHT31;68134;51.984;5.652;2023-08-31T16:08:30;25.1;39.0
78793;SHT31;68134;51.984;5.652;2023-08-31T16:11:02;25.1;40.9
78793;SHT31;68134;51.984;5.652;2023-08-31T16:13:31;25.0;41.3
78793;SHT31;68134;51.984;5.652;2023-08-31T16:16:02;25.0;40.5
78793;SHT31;68134;51.984;5.652;2023-08-31T16:18:33;24.9;38.8